Time;durP1;ratioP1;P1;durP2;ratioP2;P2;SDS_P1;SDS_P2;PMS_P1;PMS_P2;Temp;Humidity;BMP_temperature;BMP_pressure;BME280_temperature;BME280_humidity;BME280_pressure;Samples;Min_cycle;Max_cycle;Signal;HPM_P1;HPM_P2
2021/10/24 00:00:49;;;;;;;7.93;4.97;;;;;;;12.86;45.78;102414.63;4985781;28;20549;-67
2021/10/24 00:03:15;;;;;;;8.88;4.95;;;;;;;12.84;45.65;102412.97;4987560;28;20116;-67
2021/10/24 00:05:42;;;;;;;7.50;4.88;;;;;;;12.81;45.60;102411.28;4988974;28;20239;-67
2021/10/24 00:08:08;;;;;;;7.07;4.57;;;;;;;12.79;45.89;102413.19;4988335;28;20468;-67
2021/10/24 00:10:35;;;;;;;8.65;5.10;;;;;;;12.77;45.73;102414.22;4986798;28;20057;-67
2021/10/24 00:13:02;;;;;;;7.80;4.47;;;;;;;12.76;45.85;102415.22;4988263;28;20042;-67
2021/10/24 00:15:29;;;;;;;7.95;4.82;;;;;;;12.75;45.69;102413.44;4989410;28;20108;-67
2021/10/24 00:17:56;;;;;;;7.35;4.75;;;;;;;12.74;45.94;102415.28;4995873;28;20049;-67
2021/10/24 00:21:13;;;;;;;8.35;4.85;;;;;;;12.74;45.89;102417.13;4990948;28;20050;-67
2021/10/24 00:24:04;;;;;;;8.23;4.60;;;;;;;12.70;46.15;102416.38;4981894;28;20138;-67
2021/10/24 00:26:31;;;;;;;6.60;4.78;;;;;;;12.71;45.83;102411.81;4987218;28;20054;-67
2021/10/24 00:28:58;;;;;;;8.13;4.80;;;;;;;12.72;45.89;102416.31;4983488;28;20105;-67
2021/10/24 00:31:24;;;;;;;7.28;4.95;;;;;;;12.72;45.87;102413.59;4968168;28;20132;-67
2021/10/24 00:33:52;;;;;;;7.82;5.07;;;;;;;12.70;45.79;102407.31;4988326;28;20050;-67
2021/10/24 00:36:21;;;;;;;8.38;5.30;;;;;;;12.70;45.84;102410.06;4987818;28;20157;-67
2021/10/24 00:38:48;;;;;;;8.80;5.35;;;;;;;12.67;45.98;102408.38;4988809;28;20076;-67
2021/10/24 00:41:16;;;;;;;8.07;5.10;;;;;;;12.67;45.71;102415.69;4988272;28;20509;-67
2021/10/24 00:43:42;;;;;;;8.07;5.13;;;;;;;12.64;46.14;102415.81;4984660;28;20043;-67
2021/10/24 00:46:09;;;;;;;7.25;5.07;;;;;;;12.60;45.89;102404.19;4987228;28;20442;-67
2021/10/24 00:48:54;;;;;;;7.00;5.00;;;;;;;12.57;45.89;102404.34;4992129;28;20089;-67
2021/10/24 00:51:21;;;;;;;7.50;5.30;;;;;;;12.55;45.90;102403.53;4982616;28;20063;-67
2021/10/24 00:53:48;;;;;;;8.48;4.90;;;;;;;12.52;46.24;102406.41;4992686;28;20042;-67
2021/10/24 00:56:15;;;;;;;9.43;5.00;;;;;;;12.49;46.09;102410.19;4987456;28;20054;-67
2021/10/24 00:58:41;;;;;;;8.25;5.13;;;;;;;12.47;46.10;102403.03;4988768;28;20394;-67
2021/10/24 01:01:09;;;;;;;8.57;5.00;;;;;;;12.44;45.99;102405.91;4988411;28;20050;-67
2021/10/24 01:03:36;;;;;;;7.28;5.32;;;;;;;12.42;46.15;102406.00;4986283;28;20053;-67
2021/10/24 01:06:04;;;;;;;7.45;4.95;;;;;;;12.39;45.93;102392.53;4986709;28;20058;-67
2021/10/24 01:08:35;;;;;;;7.63;5.03;;;;;;;12.38;46.15;102395.34;4992590;28;20046;-67
2021/10/24 01:11:03;;;;;;;8.88;5.20;;;;;;;12.36;45.99;102392.69;4986126;28;20116;-67
2021/10/24 01:13:31;;;;;;;10.10;4.80;;;;;;;12.36;46.23;102392.69;4987787;28;20125;-67
2021/10/24 01:16:13;;;;;;;7.85;5.15;;;;;;;12.36;46.05;102391.78;4981836;28;20052;-67
2021/10/24 01:18:41;;;;;;;8.40;4.63;;;;;;;12.30;46.22;102392.09;4990143;28;20457;-67
2021/10/24 01:21:09;;;;;;;6.78;5.03;;;;;;;12.31;46.22;102382.97;4980967;28;20129;-67
2021/10/24 01:23:35;;;;;;;6.53;4.55;;;;;;;12.29;46.15;102384.88;4988982;28;20092;-67
2021/10/24 01:26:04;;;;;;;7.25;4.72;;;;;;;12.28;46.16;102384.00;5002293;28;20058;-67
2021/10/24 01:28:32;;;;;;;7.28;4.45;;;;;;;12.27;46.26;102374.06;4975595;28;20042;-67
2021/10/24 01:30:58;;;;;;;7.47;4.50;;;;;;;12.27;46.11;102375.94;4984198;28;20117;-67
2021/10/24 01:33:26;;;;;;;7.18;4.90;;;;;;;12.28;46.43;102361.34;4978544;28;20121;-67
2021/10/24 01:35:55;;;;;;;7.75;4.65;;;;;;;12.29;46.28;102365.81;4991017;28;20096;-67
2021/10/24 01:38:24;;;;;;;6.70;4.35;;;;;;;12.31;46.09;102358.47;4991732;28;20138;-67
2021/10/24 01:41:16;;;;;;;7.40;4.67;;;;;;;12.28;46.47;102359.50;4989450;28;20095;-67
2021/10/24 01:44:07;;;;;;;6.55;4.13;;;;;;;12.28;46.18;102355.88;4989674;28;20049;-67
2021/10/24 01:46:34;;;;;;;8.23;4.70;;;;;;;12.32;46.41;102350.22;4998686;28;20102;-66
2021/10/24 01:49:01;;;;;;;6.80;4.75;;;;;;;12.33;46.17;102348.38;5010313;28;20046;-67
2021/10/24 01:51:28;;;;;;;6.20;4.38;;;;;;;12.35;46.34;102344.63;4991963;28;20489;-67
2021/10/24 01:53:54;;;;;;;7.20;4.68;;;;;;;12.35;45.85;102343.75;4990415;28;20316;-67
2021/10/24 01:56:21;;;;;;;7.97;4.75;;;;;;;12.35;46.21;102347.38;4990497;28;20135;-67
2021/10/24 01:58:48;;;;;;;7.25;4.82;;;;;;;12.35;45.95;102343.75;4982016;28;20043;-67
2021/10/24 02:01:15;;;;;;;6.85;4.88;;;;;;;12.34;46.10;102331.09;4995358;28;20084;-67
2021/10/24 02:03:41;;;;;;;7.22;4.60;;;;;;;12.33;45.94;102330.22;4991674;28;20112;-67
2021/10/24 02:06:08;;;;;;;7.32;4.65;;;;;;;12.31;45.84;102329.41;4989742;28;20046;-67
2021/10/24 02:08:35;;;;;;;8.20;5.03;;;;;;;12.30;45.96;102326.75;4989207;28;20494;-67
2021/10/24 02:11:02;;;;;;;6.88;4.65;;;;;;;12.29;45.79;102324.97;4990232;28;20101;-67
2021/10/24 02:13:29;;;;;;;6.53;4.40;;;;;;;12.26;45.80;102316.97;4981622;28;20512;-67
2021/10/24 02:15:56;;;;;;;6.07;4.15;;;;;;;12.23;45.88;102311.69;4990247;28;20084;-67
2021/10/24 02:18:22;;;;;;;8.73;4.22;;;;;;;12.20;45.78;102318.16;4998820;28;20204;-67
2021/10/24 02:20:49;;;;;;;8.50;4.30;;;;;;;12.19;45.67;102313.66;4989198;28;20054;-67
2021/10/24 02:23:16;;;;;;;6.30;4.28;;;;;;;12.17;46.03;102307.44;4975514;28;20104;-67
2021/10/24 02:25:43;;;;;;;6.60;4.35;;;;;;;12.16;45.94;102316.56;4990165;28;20050;-67
2021/10/24 02:28:09;;;;;;;6.43;4.25;;;;;;;12.14;45.87;102304.84;4990599;28;20077;-67
2021/10/24 02:30:36;;;;;;;8.13;4.35;;;;;;;12.13;46.28;102308.53;4991076;28;20069;-67
2021/10/24 02:33:03;;;;;;;7.38;4.00;;;;;;;12.14;46.10;102308.47;4986895;28;20053;-67
2021/10/24 02:35:30;;;;;;;6.82;4.22;;;;;;;12.14;45.98;102297.56;4984413;28;20104;-67
2021/10/24 02:37:57;;;;;;;6.05;4.20;;;;;;;12.13;46.23;102297.66;4988306;28;20077;-67
2021/10/24 02:40:23;;;;;;;7.63;4.40;;;;;;;12.14;46.22;102294.84;4984635;28;20053;-67
2021/10/24 02:42:51;;;;;;;7.15;4.13;;;;;;;12.14;45.84;102293.97;4986744;28;20567;-67
2021/10/24 02:45:18;;;;;;;5.80;3.90;;;;;;;12.14;46.00;102296.69;4988248;28;20093;-67
2021/10/24 02:47:45;;;;;;;6.35;4.05;;;;;;;12.14;46.04;102288.53;4988167;28;20458;-67
2021/10/24 02:50:12;;;;;;;6.10;3.92;;;;;;;12.14;46.13;102288.53;4988225;28;20090;-67
2021/10/24 02:52:38;;;;;;;7.22;4.40;;;;;;;12.14;46.08;102289.41;4997298;28;20096;-67
2021/10/24 02:55:07;;;;;;;6.90;4.15;;;;;;;12.14;45.91;102288.53;4981521;28;20085;-67
2021/10/24 02:57:33;;;;;;;6.60;4.15;;;;;;;12.13;46.03;102284.91;4989953;28;20101;-67
2021/10/24 03:00:00;;;;;;;6.82;4.32;;;;;;;12.13;46.08;102284.03;4989944;28;20046;-67
2021/10/24 03:02:27;;;;;;;7.75;4.35;;;;;;;12.13;45.81;102281.31;4991005;28;20051;-67
2021/10/24 03:04:54;;;;;;;6.38;3.92;;;;;;;12.12;45.79;102277.69;4983488;28;20503;-67
2021/10/24 03:07:20;;;;;;;7.32;4.40;;;;;;;12.11;45.71;102275.94;4991102;28;20105;-67
2021/10/24 03:09:47;;;;;;;5.65;3.92;;;;;;;12.11;45.55;102277.78;4989219;28;20520;-67
2021/10/24 03:12:13;;;;;;;6.10;4.18;;;;;;;12.09;45.80;102275.16;4987113;28;20046;-67
2021/10/24 03:14:41;;;;;;;6.45;3.95;;;;;;;12.09;45.63;102267.00;4989849;28;20434;-67
2021/10/24 03:17:07;;;;;;;8.30;4.57;;;;;;;12.07;45.78;102271.63;4989952;28;20129;-67
2021/10/24 03:19:34;;;;;;;7.82;4.22;;;;;;;12.05;45.58;102270.81;4990251;28;20108;-66
2021/10/24 03:22:03;;;;;;;8.05;4.65;;;;;;;12.02;45.74;102270.97;4988779;28;20050;-67
2021/10/24 03:24:29;;;;;;;6.18;4.25;;;;;;;12.00;45.53;102272.00;4982401;28;20475;-67
2021/10/24 03:26:56;;;;;;;6.65;4.22;;;;;;;11.97;45.31;102269.44;4998333;28;20057;-67
2021/10/24 03:29:23;;;;;;;6.90;4.50;;;;;;;11.96;45.67;102267.66;4989798;28;20490;-67
2021/10/24 03:31:49;;;;;;;6.78;4.32;;;;;;;11.93;45.68;102266.00;4986369;28;20050;-67
2021/10/24 03:34:17;;;;;;;6.07;3.90;;;;;;;11.91;45.82;102259.75;4989027;28;20393;-67
2021/10/24 03:36:43;;;;;;;6.88;4.22;;;;;;;11.91;45.63;102257.03;4988315;28;20489;-67
2021/10/24 03:39:10;;;;;;;6.07;4.10;;;;;;;11.89;45.85;102258.94;4989566;28;20093;-67
2021/10/24 03:41:37;;;;;;;7.35;4.22;;;;;;;11.89;45.51;102264.38;4988964;28;20120;-67
2021/10/24 03:44:04;;;;;;;6.35;3.92;;;;;;;11.88;45.75;102262.59;4989692;28;20124;-67
2021/10/24 03:46:31;;;;;;;6.03;3.92;;;;;;;11.87;45.57;102266.28;4989809;28;20112;-67
2021/10/24 03:48:59;;;;;;;8.10;4.40;;;;;;;11.86;45.73;102256.34;4988973;28;20045;-67
2021/10/24 03:51:25;;;;;;;5.95;4.00;;;;;;;11.84;45.61;102257.41;4986680;28;20050;-67
2021/10/24 03:53:52;;;;;;;6.80;4.15;;;;;;;11.84;45.70;102261.00;4993448;28;20489;-67
2021/10/24 03:56:19;;;;;;;6.20;4.45;;;;;;;11.81;45.92;102258.44;4999246;28;20058;-67
2021/10/24 03:58:45;;;;;;;7.43;4.05;;;;;;;11.80;45.71;102251.22;4987358;28;20054;-67
2021/10/24 04:01:12;;;;;;;5.20;3.55;;;;;;;11.78;45.91;102264.91;4989638;28;20124;-67
2021/10/24 04:03:38;;;;;;;6.00;3.40;;;;;;;11.77;45.56;102257.72;4978089;28;20059;-67
2021/10/24 04:06:05;;;;;;;6.80;4.30;;;;;;;11.76;45.95;102252.34;4988021;28;20058;-67
2021/10/24 04:08:32;;;;;;;7.57;3.75;;;;;;;11.76;45.84;102252.34;4985995;28;20402;-67
2021/10/24 04:10:58;;;;;;;6.47;4.00;;;;;;;11.76;45.71;102257.78;4983407;28;20087;-67
2021/10/24 04:13:25;;;;;;;6.75;3.92;;;;;;;11.74;45.77;102252.41;4977653;28;20074;-67
2021/10/24 04:15:52;;;;;;;7.10;3.90;;;;;;;11.73;46.14;102241.56;4987926;28;20111;-67
2021/10/24 04:18:19;;;;;;;8.00;3.92;;;;;;;11.73;45.96;102239.72;4988097;28;20081;-67
2021/10/24 04:20:45;;;;;;;7.10;4.25;;;;;;;11.73;45.71;102247.00;4985453;28;20057;-67
2021/10/24 04:23:12;;;;;;;6.50;4.30;;;;;;;11.73;46.01;102238.84;4985883;28;20291;-67
2021/10/24 04:25:39;;;;;;;6.70;4.10;;;;;;;11.72;45.99;102243.41;4987931;28;20085;-67
2021/10/24 04:28:05;;;;;;;6.80;4.18;;;;;;;11.71;45.97;102228.03;4988522;28;20086;-67
2021/10/24 04:30:32;;;;;;;6.00;3.92;;;;;;;11.71;45.94;102230.75;4988029;28;20137;-67
2021/10/24 04:32:59;;;;;;;6.35;3.78;;;;;;;11.71;45.88;102230.75;4985097;28;20108;-67
2021/10/24 04:35:26;;;;;;;6.63;3.85;;;;;;;11.70;45.87;102225.38;4988813;28;20057;-67
2021/10/24 04:37:52;;;;;;;7.03;4.15;;;;;;;11.69;45.84;102226.38;4995309;28;20133;-67
2021/10/24 04:40:19;;;;;;;5.80;3.63;;;;;;;11.68;46.16;102222.78;4988947;28;20050;-67
2021/10/24 04:42:46;;;;;;;7.43;4.13;;;;;;;11.68;45.81;102216.44;4988408;28;20050;-67
2021/10/24 04:45:12;;;;;;;6.28;3.85;;;;;;;11.68;45.88;102217.34;4985792;28;20556;-67
2021/10/24 04:47:39;;;;;;;6.97;3.80;;;;;;;11.66;45.92;102211.06;4986557;28;20069;-67
2021/10/24 04:50:08;;;;;;;5.97;3.97;;;;;;;11.67;46.01;102212.84;4983510;28;20113;-67
2021/10/24 04:52:36;;;;;;;7.25;4.03;;;;;;;11.67;45.78;102215.56;4986456;28;20144;-67
2021/10/24 04:55:05;;;;;;;6.05;4.20;;;;;;;11.65;45.73;102212.03;4986444;28;20086;-67
2021/10/24 04:57:32;;;;;;;6.07;3.58;;;;;;;11.62;45.80;102206.72;4987126;28;20085;-67
2021/10/24 04:59:59;;;;;;;6.63;4.05;;;;;;;11.62;45.81;102208.56;4972938;28;20612;-67
2021/10/24 05:02:26;;;;;;;7.22;4.10;;;;;;;11.60;45.80;102199.63;4985646;28;20051;-66
2021/10/24 05:04:53;;;;;;;6.28;3.65;;;;;;;11.59;45.82;102201.47;4995379;28;20517;-66
2021/10/24 05:07:20;;;;;;;9.65;4.25;;;;;;;11.58;45.82;102198.81;4990126;28;20500;-67
2021/10/24 05:09:47;;;;;;;6.50;4.18;;;;;;;11.56;45.77;102201.59;4991772;28;20413;-67
2021/10/24 05:12:13;;;;;;;6.40;3.83;;;;;;;11.56;45.71;102195.28;4984877;28;20445;-67
2021/10/24 05:14:40;;;;;;;6.78;3.97;;;;;;;11.54;45.61;102198.06;5000786;28;20050;-67
2021/10/24 05:17:06;;;;;;;6.85;4.47;;;;;;;11.53;45.53;102187.28;4990790;28;20143;-67
2021/10/24 05:19:33;;;;;;;6.40;4.43;;;;;;;11.51;45.46;102184.63;4990325;28;20141;-67
2021/10/24 05:22:00;;;;;;;7.05;3.85;;;;;;;11.51;45.65;102183.75;4993258;28;20052;-67
2021/10/24 05:24:26;;;;;;;7.57;4.20;;;;;;;11.49;45.62;102185.66;4983575;28;20445;-67
2021/10/24 05:26:53;;;;;;;6.63;4.00;;;;;;;11.48;45.63;102197.50;4991854;28;20046;-67
2021/10/24 05:29:20;;;;;;;6.45;3.90;;;;;;;11.46;45.88;102189.41;4990667;28;20085;-67
2021/10/24 05:31:46;;;;;;;6.55;4.40;;;;;;;11.44;45.67;102186.78;4989891;28;20042;-67
2021/10/24 05:34:13;;;;;;;7.45;4.40;;;;;;;11.43;45.57;102187.75;4989963;28;20054;-67
2021/10/24 05:36:40;;;;;;;7.75;4.63;;;;;;;11.42;45.44;102176.94;4990328;28;20094;-67
2021/10/24 05:39:07;;;;;;;7.03;4.15;;;;;;;11.40;45.37;102179.72;4991863;28;20112;-67
2021/10/24 05:41:33;;;;;;;9.18;4.60;;;;;;;11.40;45.47;102173.41;4991575;28;20473;-67
2021/10/24 05:44:00;;;;;;;6.30;4.00;;;;;;;11.38;45.28;102172.59;4992276;28;20077;-67
2021/10/24 05:46:27;;;;;;;5.78;3.75;;;;;;;11.36;45.34;102171.81;4972117;28;20078;-67
2021/10/24 05:48:53;;;;;;;5.78;4.05;;;;;;;11.36;45.42;102171.81;4989614;28;20058;-67
2021/10/24 05:51:20;;;;;;;8.13;4.13;;;;;;;11.33;45.51;102172.81;4990819;28;20129;-67
2021/10/24 05:53:47;;;;;;;6.72;4.03;;;;;;;11.32;45.56;102176.50;4995985;28;20263;-67
2021/10/24 05:56:14;;;;;;;7.43;3.83;;;;;;;11.31;45.66;102177.44;4983588;28;20448;-67
2021/10/24 05:58:42;;;;;;;6.57;4.00;;;;;;;11.30;45.69;102167.53;4995451;28;20137;-67
2021/10/24 06:01:09;;;;;;;6.18;3.90;;;;;;;11.29;45.51;102163.03;5003473;28;20134;-67
2021/10/24 06:03:36;;;;;;;6.80;3.88;;;;;;;11.28;45.66;102161.28;4992156;28;20065;-67
2021/10/24 06:06:03;;;;;;;7.05;3.83;;;;;;;11.28;45.45;102165.88;4989991;28;20524;-67
2021/10/24 06:08:31;;;;;;;7.95;4.00;;;;;;;11.26;45.42;102170.47;4980228;28;20482;-67
2021/10/24 06:11:05;;;;;;;6.55;4.00;;;;;;;11.25;45.60;102163.28;4982584;28;20062;-67
2021/10/24 06:13:32;;;;;;;5.97;3.78;;;;;;;11.22;45.54;102158.88;4992018;28;20090;-67
2021/10/24 06:15:59;;;;;;;6.10;3.83;;;;;;;11.22;45.41;102168.84;4984931;28;20645;-67
2021/10/24 06:18:26;;;;;;;7.10;4.35;;;;;;;11.21;45.35;102158.94;4985852;28;20136;-67
2021/10/24 06:20:52;;;;;;;7.45;4.15;;;;;;;11.20;45.56;102162.63;4991132;28;20059;-67
2021/10/24 06:23:19;;;;;;;7.68;4.05;;;;;;;11.18;45.73;102160.00;4991588;28;20046;-67
2021/10/24 06:25:45;;;;;;;7.60;4.25;;;;;;;11.18;45.48;102157.28;4991321;28;20050;-67
2021/10/24 06:28:15;;;;;;;6.63;4.25;;;;;;;11.19;45.31;102158.16;4990170;28;20648;-67
2021/10/24 06:30:42;;;;;;;5.72;4.05;;;;;;;11.15;45.62;102165.56;4991051;28;20054;-67
2021/10/24 06:33:09;;;;;;;7.22;4.30;;;;;;;11.15;45.66;102161.97;4975127;28;20073;-67
2021/10/24 06:35:36;;;;;;;6.50;3.95;;;;;;;11.12;45.71;102162.97;4991186;28;20141;-67
2021/10/24 06:38:02;;;;;;;7.03;4.38;;;;;;;11.11;45.27;102153.09;4989068;28;20073;-67
2021/10/24 06:40:29;;;;;;;6.20;3.95;;;;;;;11.10;45.52;102155.88;4987080;28;20081;-67
2021/10/24 06:42:55;;;;;;;7.72;4.13;;;;;;;11.09;45.59;102156.81;4987861;28;20050;-67
2021/10/24 06:45:25;;;;;;;7.05;4.22;;;;;;;11.07;45.68;102146.91;4990705;28;20548;-67
2021/10/24 06:47:51;;;;;;;6.38;4.10;;;;;;;11.07;45.99;102152.34;4988994;28;20129;-68
2021/10/24 06:50:18;;;;;;;6.82;4.32;;;;;;;11.06;45.76;102147.84;4989253;28;20046;-66
2021/10/24 06:52:45;;;;;;;6.75;4.43;;;;;;;11.08;46.00;102153.22;4992267;28;20049;-66
2021/10/24 06:55:11;;;;;;;7.10;4.43;;;;;;;11.08;46.02;102155.94;4997105;28;20549;-67
2021/10/24 06:57:48;;;;;;;7.68;4.50;;;;;;;11.12;46.14;102149.38;4989637;28;20078;-66
2021/10/24 07:00:19;;;;;;;6.82;4.40;;;;;;;11.12;46.33;102135.78;4984197;28;20055;-67
2021/10/24 07:02:45;;;;;;;6.95;4.63;;;;;;;11.11;46.36;102144.06;4985929;28;20042;-67
2021/10/24 07:05:12;;;;;;;6.78;4.38;;;;;;;11.12;46.26;102132.22;4983725;28;20093;-67
2021/10/24 07:07:40;;;;;;;7.70;4.82;;;;;;;11.13;46.12;102140.28;4985204;28;20133;-67
2021/10/24 07:10:08;;;;;;;6.47;4.18;;;;;;;11.15;46.13;102151.97;4990976;28;20077;-67
2021/10/24 07:12:35;;;;;;;7.75;4.28;;;;;;;11.14;46.40;102147.47;4986424;28;20085;-67
2021/10/24 07:15:06;;;;;;;7.25;4.20;;;;;;;11.18;46.27;102143.69;4983069;28;20073;-67
2021/10/24 07:17:34;;;;;;;6.57;4.05;;;;;;;11.16;46.45;102140.16;4985561;28;20054;-67
2021/10/24 07:20:02;;;;;;;8.13;4.40;;;;;;;11.19;46.49;102145.44;4990313;28;20053;-67
2021/10/24 07:22:28;;;;;;;8.05;4.53;;;;;;;11.19;46.53;102145.44;4988906;28;20331;-67
2021/10/24 07:24:55;;;;;;;7.10;4.35;;;;;;;11.20;46.45;102146.31;4989132;28;20085;-67
2021/10/24 07:27:21;;;;;;;6.85;4.25;;;;;;;11.23;46.36;102143.44;4989013;28;20485;-67
2021/10/24 07:29:48;;;;;;;7.93;4.30;;;;;;;11.25;46.74;102149.69;4988935;28;20050;-67
2021/10/24 07:32:15;;;;;;;6.75;4.20;;;;;;;11.26;46.78;102146.00;4990056;28;20058;-67
2021/10/24 07:34:42;;;;;;;6.50;3.95;;;;;;;11.26;46.83;102146.00;4990451;28;20050;-67
2021/10/24 07:37:08;;;;;;;6.25;3.80;;;;;;;11.28;46.86;102144.97;4988756;28;20093;-67
2021/10/24 07:39:35;;;;;;;7.45;4.20;;;;;;;11.30;46.63;102143.06;4988470;28;20457;-67
2021/10/24 07:42:03;;;;;;;7.00;4.10;;;;;;;11.33;46.87;102140.19;4989611;28;20702;-67
2021/10/24 07:44:30;;;;;;;5.70;3.70;;;;;;;11.37;46.60;102138.19;4989401;28;20046;-67
2021/10/24 07:46:57;;;;;;;9.20;4.30;;;;;;;11.38;46.74;102137.25;4990034;28;20092;-67
2021/10/24 07:49:24;;;;;;;7.90;3.78;;;;;;;11.41;46.80;102131.66;4988910;28;20133;-67
2021/10/24 07:51:51;;;;;;;6.57;4.38;;;;;;;11.43;46.86;102124.31;4989835;28;20054;-67
2021/10/24 07:54:18;;;;;;;6.28;3.83;;;;;;;11.43;47.22;102125.19;4988970;28;20535;-67
2021/10/24 07:56:44;;;;;;;5.88;3.95;;;;;;;11.46;46.86;102121.41;4989211;28;20058;-67
2021/10/24 07:59:11;;;;;;;7.22;4.13;;;;;;;11.48;46.65;102124.94;4988271;28;20101;-67
2021/10/24 08:01:38;;;;;;;7.32;4.20;;;;;;;11.51;47.01;102127.53;4974269;28;20046;-67
2021/10/24 08:04:07;;;;;;;5.85;3.55;;;;;;;11.55;46.91;102111.91;4988962;28;20537;-67
2021/10/24 08:06:35;;;;;;;5.43;3.90;;;;;;;11.55;46.95;102115.50;4986381;28;20136;-67
2021/10/24 08:09:04;;;;;;;5.70;3.50;;;;;;;11.59;47.06;102114.41;4989886;28;20042;-67
2021/10/24 08:11:30;;;;;;;6.28;3.28;;;;;;;11.61;47.10;102114.34;4989069;28;20129;-67
2021/10/24 08:13:58;;;;;;;5.18;3.55;;;;;;;11.64;47.13;102109.59;4989575;28;20058;-67
2021/10/24 08:16:25;;;;;;;5.80;3.20;;;;;;;11.65;47.05;102102.31;4970843;28;20050;-67
2021/10/24 08:18:52;;;;;;;5.50;3.30;;;;;;;11.70;47.08;102105.69;4988573;28;20054;-67
2021/10/24 08:21:20;;;;;;;6.07;3.60;;;;;;;11.72;47.24;102104.66;4987555;28;21187;-67
2021/10/24 08:23:49;;;;;;;5.70;3.13;;;;;;;11.76;47.26;102103.59;4987074;28;20101;-67
2021/10/24 08:26:16;;;;;;;3.88;2.78;;;;;;;11.79;47.13;102106.13;4980174;28;20100;-67
2021/10/24 08:28:44;;;;;;;6.10;3.42;;;;;;;11.83;46.95;102104.13;4971656;28;20391;-67
2021/10/24 08:31:12;;;;;;;5.25;3.35;;;;;;;11.86;47.20;102108.56;4988855;28;20081;-66
2021/10/24 08:33:39;;;;;;;5.72;3.33;;;;;;;11.90;47.41;102110.13;4989528;28;20046;-66
2021/10/24 08:36:05;;;;;;;5.07;2.95;;;;;;;11.93;46.91;102108.16;4987379;28;20046;-66
2021/10/24 08:38:32;;;;;;;4.40;2.80;;;;;;;11.97;47.34;102103.41;4989742;28;20105;-66
2021/10/24 08:41:02;;;;;;;5.32;3.03;;;;;;;12.00;47.36;102092.38;4990266;28;20469;-67
2021/10/24 08:43:32;;;;;;;7.85;3.03;;;;;;;12.04;47.21;102091.22;4995542;28;20092;-66
2021/10/24 08:46:00;;;;;;;4.88;3.20;;;;;;;12.08;46.91;102091.00;4996218;28;20050;-67
2021/10/24 08:48:27;;;;;;;4.45;2.67;;;;;;;12.11;47.38;102090.81;4997125;28;20050;-67
2021/10/24 08:50:54;;;;;;;5.50;2.72;;;;;;;12.15;47.09;102089.69;4991769;28;20047;-66
2021/10/24 08:53:26;;;;;;;6.35;2.90;;;;;;;12.22;47.00;102089.38;5002147;28;20054;-67
2021/10/24 08:55:53;;;;;;;4.75;2.75;;;;;;;12.21;47.01;102083.03;4992727;28;20567;-67
2021/10/24 08:58:20;;;;;;;5.53;2.80;;;;;;;12.26;47.24;102080.97;4975809;28;20497;-67
2021/10/24 09:00:49;;;;;;;5.57;2.90;;;;;;;12.32;47.05;102077.91;4992329;28;20405;-67
2021/10/24 09:03:16;;;;;;;6.40;3.20;;;;;;;12.33;47.35;102078.78;4992475;28;20137;-67
2021/10/24 09:05:50;;;;;;;4.47;2.60;;;;;;;12.40;46.81;102072.91;4982695;28;20066;-67
2021/10/24 09:08:22;;;;;;;4.82;2.67;;;;;;;12.44;46.91;102074.47;5000540;28;20654;-67
2021/10/24 09:11:14;;;;;;;4.70;2.40;;;;;;;12.45;46.76;102068.06;4990556;28;20122;-67
2021/10/24 09:14:06;;;;;;;5.45;2.72;;;;;;;12.48;47.12;102064.31;4984821;28;20633;-67
2021/10/24 09:16:57;;;;;;;5.35;2.70;;;;;;;12.52;47.04;102063.16;4990061;28;20065;-67
2021/10/24 09:19:56;;;;;;;5.47;2.55;;;;;;;12.57;47.05;102070.13;4989714;28;20096;-67
2021/10/24 09:22:46;;;;;;;6.63;2.80;;;;;;;12.61;46.83;102061.75;4989289;28;20421;-67
2021/10/24 09:25:53;;;;;;;3.20;2.13;;;;;;;12.71;46.25;102060.28;4991175;28;20117;-66
2021/10/24 09:28:59;;;;;;;4.75;2.42;;;;;;;12.74;46.61;102055.56;4989079;28;20073;-66
2021/10/24 09:31:51;;;;;;;5.35;2.90;;;;;;;12.78;46.55;102068.03;4992084;28;20516;-66
2021/10/24 09:34:43;;;;;;;6.03;2.55;;;;;;;12.82;47.03;102066.03;4966850;28;20065;-67
2021/10/24 09:37:43;;;;;;;4.90;2.70;;;;;;;12.91;46.23;102069.09;4990792;28;20081;-66
2021/10/24 09:40:40;;;;;;;6.18;2.70;;;;;;;12.98;46.30;102071.47;4958782;28;20658;-66
2021/10/24 09:43:31;;;;;;;4.43;2.38;;;;;;;13.03;46.86;102078.41;4988503;28;20105;-66
2021/10/24 09:46:23;;;;;;;4.05;2.38;;;;;;;13.09;46.55;102074.47;4969490;28;20053;-66
2021/10/24 09:49:20;;;;;;;4.78;2.70;;;;;;;13.18;46.28;102066.63;4987338;28;20644;-66
2021/10/24 09:52:31;;;;;;;5.25;2.67;;;;;;;13.23;45.96;102059.09;4985415;28;20045;-66
2021/10/24 09:55:22;;;;;;;5.78;2.50;;;;;;;13.29;46.83;102049.66;4987534;28;20045;-66
2021/10/24 09:58:15;;;;;;;4.53;2.63;;;;;;;13.38;46.59;102048.22;4991375;28;20041;-66
2021/10/24 10:01:09;;;;;;;3.90;2.55;;;;;;;13.45;46.42;102045.03;4985423;28;20077;-65
2021/10/24 10:04:00;;;;;;;5.85;3.20;;;;;;;13.51;46.65;102041.94;4988006;28;20400;-66
2021/10/24 10:06:52;;;;;;;5.00;2.70;;;;;;;13.60;46.30;102040.50;4989885;28;20093;-66
2021/10/24 10:09:47;;;;;;;5.15;2.88;;;;;;;13.67;45.98;102033.72;4984845;28;20104;-66
2021/10/24 10:12:44;;;;;;;5.63;2.70;;;;;;;13.78;46.32;102031.19;4988778;28;20116;-66
2021/10/24 10:15:38;;;;;;;5.78;2.95;;;;;;;13.88;46.08;102021.47;4990478;28;20041;-65
2021/10/24 10:18:49;;;;;;;5.57;2.80;;;;;;;13.97;46.42;102020.03;4988724;28;20050;-67
2021/10/24 10:21:43;;;;;;;6.07;2.60;;;;;;;14.10;46.33;102010.06;4983477;28;20133;-66
2021/10/24 10:24:34;;;;;;;4.65;2.58;;;;;;;14.19;46.35;102000.41;4979696;28;20053;-66
2021/10/24 10:27:35;;;;;;;4.57;2.58;;;;;;;14.34;45.36;101999.44;4981095;28;20046;-66
2021/10/24 10:31:16;;;;;;;3.65;2.47;;;;;;;14.40;45.34;101999.09;4986711;28;20058;-66
2021/10/24 10:34:56;;;;;;;4.93;2.50;;;;;;;14.53;44.99;101996.44;4979366;28;20108;-66
2021/10/24 10:38:37;;;;;;;3.53;2.10;;;;;;;14.67;45.24;101993.66;4987476;28;20092;-66
2021/10/24 10:42:19;;;;;;;4.68;2.58;;;;;;;14.80;45.40;101998.22;4990007;28;20085;-66
2021/10/24 10:46:00;;;;;;;3.13;1.90;;;;;;;14.95;44.99;101988.13;4972702;28;20084;-66
2021/10/24 10:49:41;;;;;;;4.15;2.20;;;;;;;15.13;44.74;101986.00;4989872;28;20049;-66
2021/10/24 10:53:23;;;;;;;6.20;2.50;;;;;;;15.28;45.06;101982.22;4994391;28;20044;-66
2021/10/24 10:57:03;;;;;;;4.78;2.20;;;;;;;15.42;44.94;101976.66;4985382;28;20437;-66
2021/10/24 11:00:44;;;;;;;5.85;2.35;;;;;;;15.56;44.25;101965.69;4989871;28;20097;-66
2021/10/24 11:04:25;;;;;;;3.95;2.22;;;;;;;15.68;43.75;101968.53;4987795;28;20084;-66
2021/10/24 11:27:51;;;;;;;3.03;1.95;;;;;;;16.35;44.19;101948.09;5101441;27;20386;-66
2021/10/24 11:30:19;;;;;;;2.97;1.88;;;;;;;16.47;43.99;101957.31;5042512;28;20057;-66
2021/10/24 11:32:52;;;;;;;3.80;1.77;;;;;;;16.57;42.84;101948.25;5049593;28;20069;-66
2021/10/24 11:35:19;;;;;;;2.92;1.80;;;;;;;16.62;43.78;101939.75;5041459;28;20099;-66
2021/10/24 11:38:07;;;;;;;3.35;1.65;;;;;;;16.69;42.40;101933.69;5041095;28;20085;-66
2021/10/24 11:40:38;;;;;;;3.05;1.90;;;;;;;16.79;43.45;101933.84;5024018;28;20073;-66
2021/10/24 11:43:14;;;;;;;3.15;1.90;;;;;;;16.91;42.79;101943.88;5046170;28;20075;-66
2021/10/24 11:45:45;;;;;;;3.35;1.88;;;;;;;17.00;41.85;101931.34;5051227;28;20061;-66
2021/10/24 11:48:27;;;;;;;2.97;1.75;;;;;;;17.08;42.05;101929.75;5034780;28;20064;-66
2021/10/24 11:50:56;;;;;;;3.22;1.83;;;;;;;17.18;42.58;101929.91;5063460;28;20052;-66
2021/10/24 11:53:24;;;;;;;4.10;2.03;;;;;;;17.26;42.46;101926.56;5060637;28;20068;-66
2021/10/24 11:56:17;;;;;;;3.45;2.05;;;;;;;17.35;41.43;101926.75;5060992;28;20053;-66
2021/10/24 12:01:35;;;;;;;3.53;1.73;;;;;;;17.48;42.44;101919.28;5062052;28;19924;-66
2021/10/24 12:04:09;;;;;;;2.88;1.70;;;;;;;17.60;41.45;101913.81;5065896;28;20055;-66
2021/10/24 12:07:00;;;;;;;2.83;1.80;;;;;;;17.65;40.73;101915.22;5056247;28;20049;-66
2021/10/24 12:09:49;;;;;;;4.28;1.90;;;;;;;17.73;40.73;101914.59;5055430;28;20056;-67
2021/10/24 12:12:19;;;;;;;4.28;1.98;;;;;;;17.81;41.50;101912.13;5061194;28;20132;-67
2021/10/24 12:14:48;;;;;;;3.20;1.80;;;;;;;17.87;41.76;101914.41;5047541;28;20068;-66
2021/10/24 12:17:19;;;;;;;3.60;1.90;;;;;;;17.95;41.35;101922.03;5057678;28;20072;-67